createdAt,value
2022-11-18T00:01:17.661Z,6.66
2022-11-18T00:03:45.406Z,6.68
2022-11-18T00:06:15.069Z,6.72
2022-11-18T00:08:42.462Z,6.75
2022-11-18T00:11:11.404Z,6.78
2022-11-18T00:13:56.766Z,6.71
2022-11-18T00:16:24.124Z,6.67
2022-11-18T00:18:51.340Z,6.65
2022-11-18T00:21:18.180Z,6.68
2022-11-18T00:23:44.837Z,6.69
2022-11-18T00:26:13.786Z,6.64
2022-11-18T00:28:41.564Z,6.56
2022-11-18T00:31:11.345Z,6.51
2022-11-18T00:33:39.188Z,6.43
2022-11-18T00:36:12.095Z,6.44
2022-11-18T00:38:39.842Z,6.45
2022-11-18T00:41:08.999Z,6.48
2022-11-18T00:43:36.406Z,6.36
2022-11-18T00:46:04.536Z,6.42
2022-11-18T00:48:31.171Z,6.41
2022-11-18T00:51:05.891Z,6.38
2022-11-18T00:53:32.472Z,6.41
2022-11-18T00:55:59.132Z,6.39
2022-11-18T00:58:25.814Z,6.38
2022-11-18T01:00:52.928Z,6.41
2022-11-18T01:03:20.319Z,6.40
2022-11-18T01:05:47.724Z,6.45
2022-11-18T01:08:14.680Z,6.44
2022-11-18T01:10:41.638Z,6.45
2022-11-18T01:13:23.004Z,6.38
2022-11-18T01:15:55.221Z,6.34
2022-11-18T01:18:25.473Z,6.53
2022-11-18T01:20:52.880Z,6.51
2022-11-18T01:23:20.701Z,6.52
2022-11-18T01:25:49.191Z,6.49
2022-11-18T01:28:21.986Z,6.45
2022-11-18T01:30:50.504Z,6.43
2022-11-18T01:33:17.060Z,6.46
2022-11-18T01:35:44.507Z,6.51
2022-11-18T01:38:12.512Z,6.46
2022-11-18T01:40:39.767Z,6.49
2022-11-18T01:43:12.913Z,6.58
2022-11-18T01:45:42.017Z,6.47
2022-11-18T01:48:23.866Z,6.46
2022-11-18T01:51:00.760Z,6.51
2022-11-18T01:53:32.797Z,6.49
2022-11-18T01:56:05.203Z,6.48
2022-11-18T01:58:40.534Z,6.47
2022-11-18T02:01:08.191Z,6.49
2022-11-18T02:03:35.564Z,6.44
2022-11-18T02:06:03.501Z,6.44
2022-11-18T02:08:30.896Z,6.40
2022-11-18T02:10:57.704Z,6.38
2022-11-18T02:13:24.954Z,6.41
2022-11-18T02:16:10.574Z,6.39
2022-11-18T02:18:59.399Z,6.45
2022-11-18T02:22:03.592Z,6.45
2022-11-18T02:24:48.428Z,6.50
2022-11-18T02:27:26.038Z,6.41
2022-11-18T02:30:09.576Z,6.48
2022-11-18T02:32:36.099Z,6.40
2022-11-18T02:35:46.485Z,6.37
2022-11-18T02:38:30.809Z,6.31
2022-11-18T02:41:03.290Z,6.36
2022-11-18T02:43:39.136Z,6.32
2022-11-18T02:46:10.032Z,6.35
2022-11-18T02:48:44.442Z,6.34
2022-11-18T02:51:13.418Z,6.32
2022-11-18T02:53:42.191Z,6.36
2022-11-18T02:56:10.289Z,6.35
2022-11-18T02:58:36.831Z,6.39
2022-11-18T03:01:03.696Z,6.41
2022-11-18T03:03:33.318Z,6.35
2022-11-18T03:06:16.348Z,6.29
2022-11-18T03:08:50.145Z,6.30
2022-11-18T03:11:26.253Z,6.36
2022-11-18T03:13:58.716Z,6.33
2022-11-18T03:16:38.008Z,6.42
2022-11-18T03:19:09.095Z,6.31
2022-11-18T03:21:51.560Z,6.28
2022-11-18T03:24:27.668Z,6.34
2022-11-18T03:27:00.131Z,6.33
2022-11-18T03:29:34.532Z,6.25
2022-11-18T03:32:17.463Z,6.34
2022-11-18T03:34:49.410Z,6.24
2022-11-18T03:37:19.800Z,6.49
2022-11-18T03:39:52.321Z,6.45
2022-11-18T03:42:25.078Z,6.40
2022-11-18T03:44:56.594Z,6.28
2022-11-18T03:47:29.989Z,6.30
2022-11-18T03:50:04.554Z,6.30
2022-11-18T03:52:35.587Z,6.21
2022-11-18T03:55:10.986Z,6.20
2022-11-18T03:57:41.502Z,6.23
2022-11-18T04:00:14.369Z,6.20
2022-11-18T04:02:41.418Z,6.09
2022-11-18T04:05:12.683Z,6.08
2022-11-18T04:07:53.906Z,6.07
2022-11-18T04:10:33.415Z,6.03
2022-11-18T04:13:06.979Z,6.02
2022-11-18T04:15:38.012Z,6.06
2022-11-18T04:18:04.888Z,6.12
2022-11-18T04:20:32.412Z,6.25
2022-11-18T04:22:59.060Z,6.35
2022-11-18T04:25:25.884Z,6.27
2022-11-18T04:27:52.724Z,6.20
2022-11-18T04:30:19.913Z,6.18
2022-11-18T04:32:47.121Z,6.17
2022-11-18T04:35:14.746Z,6.12
2022-11-18T04:37:41.466Z,6.09
2022-11-18T04:40:09.165Z,6.19
2022-11-18T04:42:35.975Z,6.19
2022-11-18T04:45:03.055Z,6.27
2022-11-18T04:47:29.675Z,6.30
2022-11-18T04:49:56.471Z,6.37
2022-11-18T04:52:23.138Z,6.40
2022-11-18T04:54:49.821Z,6.39
2022-11-18T04:57:16.407Z,6.45
2022-11-18T04:59:43.048Z,6.40
2022-11-18T05:02:09.650Z,6.43
2022-11-18T05:04:36.317Z,6.45
2022-11-18T05:07:04.701Z,6.47
2022-11-18T05:09:32.409Z,6.46
2022-11-18T05:12:18.514Z,6.40
2022-11-18T05:14:49.620Z,6.27
2022-11-18T05:17:18.124Z,6.22
2022-11-18T05:19:44.699Z,6.40
2022-11-18T05:22:11.294Z,6.34
2022-11-18T05:24:38.042Z,6.15
2022-11-18T05:27:04.591Z,6.12
2022-11-18T05:29:31.234Z,6.20
2022-11-18T05:31:57.828Z,6.16
2022-11-18T05:34:24.490Z,6.09
2022-11-18T05:36:51.118Z,6.19
2022-11-18T05:39:18.790Z,6.23
2022-11-18T05:42:05.940Z,6.19
2022-11-18T05:44:32.529Z,6.07
2022-11-18T05:47:00.235Z,6.07
2022-11-18T05:49:26.883Z,6.06
2022-11-18T05:51:53.481Z,6.09
2022-11-18T05:54:21.649Z,6.20
2022-11-18T05:56:48.428Z,6.20
2022-11-18T05:59:15.367Z,6.26
2022-11-18T06:01:48.148Z,6.15
2022-11-18T06:04:44.640Z,6.25
2022-11-18T06:07:20.501Z,6.34
2022-11-18T06:09:51.994Z,6.40
2022-11-18T06:12:23.262Z,6.52
2022-11-18T06:14:56.597Z,6.74
2022-11-18T06:17:28.832Z,6.61
2022-11-18T06:19:56.759Z,6.70
2022-11-18T06:22:23.431Z,6.67
2022-11-18T06:24:50.322Z,6.76
2022-11-18T06:27:17.559Z,6.69
2022-11-18T06:29:44.194Z,6.56
2022-11-18T06:32:11.161Z,6.51
2022-11-18T06:34:41.418Z,6.52
2022-11-18T06:37:20.701Z,6.59
2022-11-18T06:39:47.496Z,6.74
2022-11-18T06:42:36.866Z,6.60
2022-11-18T06:45:04.583Z,6.52
2022-11-18T06:47:31.182Z,6.34
2022-11-18T06:49:57.752Z,6.61
2022-11-18T06:52:24.475Z,6.68
2022-11-18T06:54:51.050Z,6.79
2022-11-18T06:57:17.692Z,6.69
2022-11-18T06:59:44.295Z,6.67
2022-11-18T07:02:11.050Z,6.80
2022-11-18T07:04:39.754Z,7.00
2022-11-18T07:07:09.181Z,6.65
2022-11-18T07:09:36.774Z,6.63
2022-11-18T07:12:04.721Z,6.58
2022-11-18T07:14:31.481Z,6.74
2022-11-18T07:16:58.105Z,6.85
2022-11-18T07:19:24.694Z,6.75
2022-11-18T07:21:51.556Z,6.69
2022-11-18T07:24:18.219Z,6.84
2022-11-18T07:26:44.863Z,6.86
2022-11-18T07:29:11.503Z,6.72
2022-11-18T07:31:39.657Z,6.65
2022-11-18T07:34:07.118Z,6.59
2022-11-18T07:36:35.905Z,6.63
2022-11-18T07:39:05.225Z,6.65
2022-11-18T07:41:32.395Z,6.65
2022-11-18T07:44:01.343Z,6.68
2022-11-18T07:46:30.239Z,6.72
2022-11-18T07:48:59.008Z,6.72
2022-11-18T07:51:27.883Z,6.67
2022-11-18T07:53:54.929Z,6.66
2022-11-18T07:56:22.613Z,6.65
2022-11-18T07:58:53.971Z,6.62
2022-11-18T08:01:22.879Z,6.57
2022-11-18T08:03:49.527Z,6.53
2022-11-18T08:06:17.947Z,6.48
2022-11-18T08:08:45.070Z,6.48
2022-11-18T08:11:20.407Z,6.55
2022-11-18T08:13:48.710Z,6.45
2022-11-18T08:16:21.776Z,6.50
2022-11-18T08:18:48.415Z,6.47
2022-11-18T08:21:15.844Z,6.54
2022-11-18T08:23:42.969Z,6.68
2022-11-18T08:26:15.621Z,7.00
2022-11-18T08:28:44.034Z,7.10
2022-11-18T08:31:12.875Z,7.00
2022-11-18T08:33:39.892Z,7.07
2022-11-18T08:36:14.331Z,6.96
2022-11-18T08:38:41.012Z,7.05
2022-11-18T08:41:07.733Z,7.09
2022-11-18T08:43:37.600Z,7.15
2022-11-18T08:46:04.208Z,7.12
2022-11-18T08:48:30.926Z,7.26
2022-11-18T08:50:58.867Z,7.09
2022-11-18T08:53:25.545Z,7.12
2022-11-18T08:55:57.475Z,7.21
2022-11-18T08:58:24.673Z,7.45
2022-11-18T09:00:51.524Z,7.56
2022-11-18T09:03:18.314Z,7.57
2022-11-18T09:05:45.165Z,7.56
2022-11-18T09:08:11.762Z,7.63
2022-11-18T09:10:38.634Z,7.50
2022-11-18T09:13:33.463Z,7.72
2022-11-18T09:15:51.778Z,7.67
2022-11-18T09:18:18.315Z,7.50
2022-11-18T09:20:57.456Z,7.61
2022-11-18T09:23:24.599Z,7.78
2022-11-18T09:26:01.956Z,7.66
2022-11-18T09:28:29.339Z,7.71
2022-11-18T09:30:55.917Z,7.74
2022-11-18T09:33:23.249Z,7.58
2022-11-18T09:35:50.300Z,7.71
2022-11-18T09:38:17.047Z,7.73
2022-11-18T09:41:00.789Z,7.65
2022-11-18T09:43:52.197Z,7.73
2022-11-18T09:46:33.997Z,7.94
2022-11-18T09:49:14.450Z,7.99
2022-11-18T09:51:43.893Z,7.87
2022-11-18T09:54:16.584Z,7.92
2022-11-18T09:56:43.669Z,8.00
2022-11-18T09:59:14.464Z,8.04
2022-11-18T10:01:42.733Z,8.19
2022-11-18T10:04:18.600Z,8.21
2022-11-18T10:06:46.394Z,8.25
2022-11-18T10:09:18.866Z,8.29
2022-11-18T10:12:12.941Z,8.30
2022-11-18T10:14:42.513Z,8.08
2022-11-18T10:17:45.307Z,8.13
2022-11-18T10:20:51.726Z,8.27
2022-11-18T10:23:28.890Z,8.26
2022-11-18T10:25:55.818Z,7.95
2022-11-18T10:28:25.229Z,7.78
2022-11-18T10:30:52.639Z,7.87
2022-11-18T10:33:22.193Z,7.86
2022-11-18T10:35:49.507Z,7.75
2022-11-18T10:38:20.532Z,7.45
2022-11-18T10:41:00.908Z,7.56
2022-11-18T10:43:50.079Z,7.69
2022-11-18T10:46:34.788Z,7.61
2022-11-18T10:49:10.113Z,7.69
2022-11-18T10:51:48.808Z,7.76
2022-11-18T10:54:20.210Z,7.75
2022-11-18T10:56:58.686Z,7.85
2022-11-18T10:59:44.389Z,7.78
2022-11-18T11:02:34.277Z,7.61
2022-11-18T11:05:17.646Z,7.66
2022-11-18T11:07:44.367Z,7.79
2022-11-18T11:10:10.886Z,7.61
2022-11-18T11:12:47.046Z,7.60
2022-11-18T11:15:18.444Z,7.86
2022-11-18T11:18:18.319Z,7.85
2022-11-18T11:20:45.458Z,7.72
2022-11-18T11:23:17.723Z,7.67
2022-11-18T11:29:16.999Z,7.50
2022-11-18T11:32:05.672Z,7.48
2022-11-18T11:34:41.376Z,7.46
2022-11-18T11:37:47.517Z,7.55
2022-11-18T11:40:29.391Z,7.50
2022-11-18T11:42:58.608Z,7.42
2022-11-18T11:45:39.845Z,7.32
2022-11-18T11:48:27.775Z,7.27
2022-11-18T11:51:03.054Z,7.35
2022-11-18T11:53:53.613Z,7.19
2022-11-18T11:56:41.828Z,7.08
2022-11-18T11:59:43.104Z,6.90
2022-11-18T12:02:36.213Z,6.75
2022-11-18T12:05:36.062Z,6.64
2022-11-18T12:08:09.771Z,6.70
2022-11-18T12:10:57.865Z,6.70
2022-11-18T12:13:33.977Z,6.85
2022-11-18T12:16:18.589Z,6.80
2022-11-18T12:18:58.211Z,6.76
2022-11-18T12:21:46.578Z,6.75
2022-11-18T12:24:42.452Z,6.71
2022-11-18T12:27:15.105Z,6.57
2022-11-18T12:29:50.814Z,6.65
2022-11-18T12:32:36.364Z,6.64
2022-11-18T12:35:11.812Z,6.59
2022-11-18T12:37:53.535Z,6.69
2022-11-18T12:40:38.953Z,6.56
2022-11-18T12:43:52.853Z,6.54
2022-11-18T12:46:34.779Z,6.53
2022-11-18T12:49:45.654Z,6.58
2022-11-18T12:52:30.284Z,6.57
2022-11-18T12:54:59.952Z,6.58
2022-11-18T12:57:31.055Z,6.66
2022-11-18T12:59:57.740Z,6.57
2022-11-18T13:02:28.663Z,6.52
2022-11-18T13:05:04.604Z,6.53
2022-11-18T13:07:54.078Z,6.39
2022-11-18T13:10:27.452Z,6.34
2022-11-18T13:12:54.452Z,6.31
2022-11-18T13:15:39.725Z,6.17
2022-11-18T13:18:18.649Z,6.25
2022-11-18T13:20:57.626Z,6.38
2022-11-18T13:23:47.952Z,6.33
2022-11-18T13:26:42.575Z,6.42
2022-11-18T13:29:30.606Z,6.45
2022-11-18T13:32:02.927Z,6.43
2022-11-18T13:34:31.829Z,6.53
2022-11-18T13:37:00.720Z,6.57
2022-11-18T13:39:28.509Z,6.59
2022-11-18T13:42:00.858Z,6.44
2022-11-18T13:44:35.169Z,6.40
2022-11-18T13:47:34.355Z,6.40
2022-11-18T13:50:15.981Z,6.48
2022-11-18T13:52:51.567Z,6.37
2022-11-18T13:55:28.201Z,6.41
2022-11-18T13:58:05.943Z,6.27
2022-11-18T14:00:35.729Z,6.10
2022-11-18T14:03:23.950Z,6.00
2022-11-18T14:05:54.860Z,5.90
2022-11-18T14:08:33.037Z,5.83
2022-11-18T14:11:00.630Z,5.86
2022-11-18T14:13:31.751Z,5.89
2022-11-18T14:16:01.008Z,5.89
2022-11-18T14:18:35.922Z,5.80
2022-11-18T14:21:05.782Z,5.79
2022-11-18T14:23:40.270Z,5.72
2022-11-18T14:26:13.510Z,5.70
2022-11-18T14:28:40.319Z,5.72
2022-11-18T14:31:12.733Z,5.87
2022-11-18T14:33:39.620Z,5.93
2022-11-18T14:36:15.616Z,5.91
2022-11-18T14:41:47.930Z,6.12
2022-11-18T14:44:15.239Z,6.25
2022-11-18T14:46:44.670Z,6.22
2022-11-18T14:49:18.418Z,6.11
2022-11-18T14:51:45.937Z,6.10
2022-11-18T14:54:24.072Z,5.94
2022-11-18T14:56:55.493Z,5.91
2022-11-18T14:59:22.605Z,5.95
2022-11-18T15:01:49.305Z,6.08
2022-11-18T15:04:17.812Z,6.26
2022-11-18T15:06:44.716Z,6.02
2022-11-18T15:09:11.947Z,6.12
2022-11-18T15:11:38.760Z,6.29
2022-11-18T15:14:05.603Z,6.27
2022-11-18T15:16:33.182Z,6.10
2022-11-18T15:19:02.514Z,6.09
2022-11-18T15:21:29.643Z,5.96
2022-11-18T15:23:56.291Z,5.92
2022-11-18T15:26:29.259Z,5.84
2022-11-18T15:28:57.418Z,5.81
2022-11-18T15:31:24.851Z,5.77
2022-11-18T15:33:52.361Z,5.97
2022-11-18T15:36:26.575Z,5.94
2022-11-18T15:38:54.560Z,6.27
2022-11-18T15:41:23.998Z,5.92
2022-11-18T15:43:51.296Z,6.06
2022-11-18T15:46:19.565Z,6.08
2022-11-18T15:48:46.395Z,6.01
2022-11-18T15:51:13.192Z,5.97
2022-11-18T15:53:42.603Z,5.88
2022-11-18T15:56:37.330Z,5.72
2022-11-18T15:59:06.354Z,5.65
2022-11-18T16:01:38.195Z,5.45
2022-11-18T16:04:09.201Z,5.75
2022-11-18T16:06:36.367Z,5.66
2022-11-18T16:09:04.140Z,5.72
2022-11-18T16:11:49.824Z,5.62
2022-11-18T16:14:19.238Z,5.70
2022-11-18T16:16:48.945Z,5.70
2022-11-18T16:19:18.663Z,5.69
2022-11-18T16:21:48.878Z,5.92
2022-11-18T16:24:22.095Z,5.81
2022-11-18T16:26:49.635Z,5.74
2022-11-18T16:29:17.517Z,5.72
2022-11-18T16:31:52.467Z,5.57
2022-11-18T16:34:21.161Z,5.52
2022-11-18T16:37:00.664Z,5.40
2022-11-18T16:39:28.280Z,5.37
2022-11-18T16:42:02.070Z,5.43
2022-11-18T16:44:33.193Z,5.34
2022-11-18T16:46:59.763Z,5.84
2022-11-18T16:49:27.427Z,5.75
2022-11-18T16:51:55.622Z,5.55
2022-11-18T16:54:30.518Z,5.62
2022-11-18T16:56:58.756Z,5.60
2022-11-18T16:59:29.870Z,5.51
2022-11-18T17:01:58.044Z,5.47
2022-11-18T17:04:26.830Z,5.32
2022-11-18T17:06:54.426Z,5.23
2022-11-18T17:09:23.606Z,5.26
2022-11-18T17:11:51.632Z,5.57
2022-11-18T17:14:19.686Z,5.76
2022-11-18T17:16:46.294Z,5.51
2022-11-18T17:19:16.403Z,5.49
2022-11-18T17:21:43.954Z,5.48
2022-11-18T17:24:13.173Z,5.29
2022-11-18T17:26:40.206Z,5.21
2022-11-18T17:29:07.144Z,5.35
2022-11-18T17:31:33.949Z,5.59
2022-11-18T17:34:00.569Z,5.62
2022-11-18T17:36:27.821Z,5.50
2022-11-18T17:38:56.544Z,5.40
2022-11-18T17:41:43.428Z,5.25
2022-11-18T17:44:12.026Z,5.08
2022-11-18T17:46:39.001Z,4.89
2022-11-18T17:49:12.290Z,4.93
2022-11-18T17:51:39.008Z,4.85
2022-11-18T17:54:05.865Z,4.91
2022-11-18T17:56:32.550Z,4.91
2022-11-18T17:58:59.179Z,4.64
2022-11-18T18:01:25.884Z,4.53
2022-11-18T18:03:52.539Z,4.44
2022-11-18T18:06:22.808Z,4.36
2022-11-18T18:08:49.378Z,4.30
2022-11-18T18:11:19.087Z,4.25
2022-11-18T18:14:04.763Z,4.21
2022-11-18T18:16:32.704Z,4.28
2022-11-18T18:19:00.886Z,4.20
2022-11-18T18:21:27.807Z,4.12
2022-11-18T18:23:54.591Z,4.09
2022-11-18T18:26:24.089Z,4.10
2022-11-18T18:28:53.361Z,4.15
2022-11-18T18:31:20.084Z,4.44
2022-11-18T18:33:46.842Z,4.45
2022-11-18T18:36:16.063Z,4.51
2022-11-18T18:38:43.834Z,4.73
2022-11-18T18:44:47.247Z,4.64
2022-11-18T18:47:13.863Z,4.72
2022-11-18T18:49:40.531Z,4.94
2022-11-18T18:52:07.104Z,4.88
2022-11-18T18:54:33.686Z,4.80
2022-11-18T18:57:00.407Z,4.61
2022-11-18T18:59:27.063Z,4.49
2022-11-18T19:01:53.823Z,4.65
2022-11-18T19:04:20.751Z,4.57
2022-11-18T19:06:55.037Z,4.70
2022-11-18T19:09:25.840Z,4.77
2022-11-18T19:12:11.280Z,4.96
2022-11-18T19:14:40.960Z,4.60
2022-11-18T19:17:11.181Z,4.40
2022-11-18T19:19:59.502Z,4.37
2022-11-18T19:22:29.242Z,4.27
2022-11-18T19:24:56.206Z,4.28
2022-11-18T19:27:23.500Z,4.22
2022-11-18T19:29:50.114Z,4.14
2022-11-18T19:32:16.754Z,4.08
2022-11-18T19:34:43.342Z,3.98
2022-11-18T19:37:09.926Z,4.05
2022-11-18T19:39:38.289Z,4.04
2022-11-18T19:42:05.146Z,4.01
2022-11-18T19:44:31.761Z,4.14
2022-11-18T19:46:58.376Z,4.22
2022-11-18T19:49:24.921Z,4.43
2022-11-18T19:51:51.519Z,4.40
2022-11-18T19:54:18.135Z,4.55
2022-11-18T19:56:44.701Z,4.37
2022-11-18T19:59:14.333Z,4.38
2022-11-18T20:01:41.377Z,4.41
2022-11-18T20:04:08.208Z,4.44
2022-11-18T20:06:36.449Z,4.57
2022-11-18T20:09:06.593Z,4.57
2022-11-18T20:11:33.320Z,4.36
2022-11-18T20:14:00.210Z,4.29
2022-11-18T20:16:26.837Z,4.36
2022-11-18T20:18:55.740Z,4.25
2022-11-18T20:21:23.670Z,4.18
2022-11-18T20:23:54.644Z,4.13
2022-11-18T20:26:23.415Z,4.33
2022-11-18T20:28:55.894Z,4.50
2022-11-18T20:31:25.922Z,4.70
2022-11-18T20:33:54.823Z,4.51
2022-11-18T20:36:27.270Z,4.71
2022-11-18T20:38:56.166Z,4.44
2022-11-18T20:41:23.523Z,4.63
2022-11-18T20:43:50.940Z,4.73
2022-11-18T20:46:21.036Z,4.50
2022-11-18T20:48:48.857Z,4.22
2022-11-18T20:51:19.502Z,4.07
2022-11-18T20:53:46.197Z,3.97
2022-11-18T20:56:15.203Z,3.97
2022-11-18T20:58:41.989Z,4.07
2022-11-18T21:01:29.349Z,3.84
2022-11-18T21:03:58.526Z,3.70
2022-11-18T21:06:27.566Z,3.60
2022-11-18T21:08:58.497Z,3.57
2022-11-18T21:11:26.357Z,3.71
2022-11-18T21:14:12.130Z,3.88
2022-11-18T21:16:39.997Z,3.91
2022-11-18T21:19:06.680Z,3.91
2022-11-18T21:21:45.088Z,4.09
2022-11-18T21:24:15.783Z,4.16
2022-11-18T21:26:43.338Z,4.30
2022-11-18T21:29:11.468Z,4.39
2022-11-18T21:31:38.745Z,4.35
2022-11-18T21:34:06.393Z,4.62
2022-11-18T21:36:33.987Z,4.39
2022-11-18T21:39:01.524Z,4.28
2022-11-18T21:41:29.532Z,4.26
2022-11-18T21:44:05.957Z,4.33
2022-11-18T21:46:34.306Z,4.28
2022-11-18T21:49:01.151Z,4.37
2022-11-18T21:51:28.165Z,4.50
2022-11-18T21:53:54.865Z,4.31
2022-11-18T21:56:23.612Z,4.26
2022-11-18T21:58:51.170Z,4.42
2022-11-18T22:01:20.601Z,4.45
2022-11-18T22:04:05.665Z,4.27
2022-11-18T22:06:34.159Z,4.41
2022-11-18T22:09:02.409Z,4.37
2022-11-18T22:11:29.003Z,4.56
2022-11-18T22:13:55.869Z,4.73
2022-11-18T22:16:23.912Z,4.81
2022-11-18T22:18:57.199Z,4.55
2022-11-18T22:21:26.456Z,4.83
2022-11-18T22:23:57.891Z,4.93
2022-11-18T22:26:24.567Z,4.83
2022-11-18T22:28:56.664Z,4.60
2022-11-18T22:31:25.187Z,4.60
2022-11-18T22:33:52.506Z,4.88
2022-11-18T22:36:21.364Z,4.75
2022-11-18T22:38:48.663Z,4.60
2022-11-18T22:41:39.375Z,4.47
2022-11-18T22:44:08.418Z,4.41
2022-11-18T22:46:37.142Z,4.31
2022-11-18T22:49:04.951Z,4.27
2022-11-18T22:51:32.373Z,4.28
2022-11-18T22:56:45.528Z,4.23
2022-11-18T22:59:12.745Z,4.20
2022-11-18T23:01:39.681Z,4.18
2022-11-18T23:04:06.428Z,4.21
2022-11-18T23:06:32.996Z,4.20
2022-11-18T23:08:59.566Z,4.39
2022-11-18T23:11:44.713Z,4.26
2022-11-18T23:14:11.364Z,4.21
2022-11-18T23:16:40.262Z,4.28
2022-11-18T23:19:09.873Z,4.34
2022-11-18T23:21:36.859Z,4.26
2022-11-18T23:24:03.959Z,4.31
2022-11-18T23:26:31.652Z,4.40
2022-11-18T23:28:58.275Z,4.52
2022-11-18T23:31:26.844Z,4.49
2022-11-18T23:33:57.446Z,4.40
2022-11-18T23:36:24.977Z,4.53
2022-11-18T23:38:53.045Z,4.46
2022-11-18T23:41:19.993Z,4.45
2022-11-18T23:43:48.295Z,4.37
2022-11-18T23:46:16.834Z,4.67
2022-11-18T23:48:44.287Z,4.90
2022-11-18T23:51:20.402Z,5.21
2022-11-18T23:53:51.018Z,4.94
2022-11-18T23:56:19.032Z,4.86
2022-11-18T23:58:48.212Z,4.80
